sensor_id;sensor_type;location;lat;lon;timestamp;pressure;altitude;pressure_sealevel;temperature;humidity
42169;BME280;27838;43.858;25.974;2023-04-09T00:00:08;101593.41;;;12.86;55.59
42169;BME280;27838;43.858;25.974;2023-04-09T00:02:35;101591.63;;;12.85;55.38
42169;BME280;27838;43.858;25.974;2023-04-09T00:05:02;101592.50;;;12.87;55.18
42169;BME280;27838;43.858;25.974;2023-04-09T00:07:29;101593.41;;;12.86;55.28
42169;BME280;27838;43.858;25.974;2023-04-09T00:09:55;101589.00;;;12.82;55.66
42169;BME280;27838;43.858;25.974;2023-04-09T00:12:22;101591.59;;;12.79;55.77
42169;BME280;27838;43.858;25.974;2023-04-09T00:14:48;101590.75;;;12.81;55.66
42169;BME280;27838;43.858;25.974;2023-04-09T00:17:15;101595.13;;;12.85;55.75
42169;BME280;27838;43.858;25.974;2023-04-09T00:19:41;101590.78;;;12.91;55.57
42169;BME280;27838;43.858;25.974;2023-04-09T00:22:08;101582.97;;;12.95;55.38
42169;BME280;27838;43.858;25.974;2023-04-09T00:24:35;101586.47;;;13.00;55.13
42169;BME280;27838;43.858;25.974;2023-04-09T00:27:01;101583.00;;;12.98;55.11
42169;BME280;27838;43.858;25.974;2023-04-09T00:29:28;101592.56;;;12.98;55.38
42169;BME280;27838;43.858;25.974;2023-04-09T00:31:54;101589.94;;;12.96;55.27
42169;BME280;27838;43.858;25.974;2023-04-09T00:34:21;101593.41;;;12.91;55.77
42169;BME280;27838;43.858;25.974;2023-04-09T00:36:47;101592.56;;;12.93;55.71
42169;BME280;27838;43.858;25.974;2023-04-09T00:39:14;101593.41;;;12.94;55.52
42169;BME280;27838;43.858;25.974;2023-04-09T00:41:40;101592.56;;;12.93;55.71
42169;BME280;27838;43.858;25.974;2023-04-09T00:44:07;101593.41;;;12.92;55.52
42169;BME280;27838;43.858;25.974;2023-04-09T00:46:33;101592.53;;;12.90;55.95
42169;BME280;27838;43.858;25.974;2023-04-09T00:49:00;101589.88;;;12.84;56.07
42169;BME280;27838;43.858;25.974;2023-04-09T00:51:27;101592.50;;;12.84;55.98
42169;BME280;27838;43.858;25.974;2023-04-09T00:53:54;101588.13;;;12.80;56.18
42169;BME280;27838;43.858;25.974;2023-04-09T00:56:21;101595.97;;;12.78;55.82
42169;BME280;27838;43.858;25.974;2023-04-09T00:58:49;101589.84;;;12.75;56.13
42169;BME280;27838;43.858;25.974;2023-04-09T01:01:15;101597.66;;;12.72;56.35
42169;BME280;27838;43.858;25.974;2023-04-09T01:03:42;101599.41;;;12.70;56.30
42169;BME280;27838;43.858;25.974;2023-04-09T01:06:32;101598.53;;;12.68;56.56
42169;BME280;27838;43.858;25.974;2023-04-09T01:09:02;101584.56;;;12.64;56.21
42169;BME280;27838;43.858;25.974;2023-04-09T01:11:42;101587.19;;;12.65;56.84
42169;BME280;27838;43.858;25.974;2023-04-09T01:14:23;101583.69;;;12.66;56.72
42169;BME280;27838;43.858;25.974;2023-04-09T01:16:57;101579.34;;;12.64;56.71
42169;BME280;27838;43.858;25.974;2023-04-09T01:28:42;101593.25;;;12.57;57.64
42169;BME280;27838;43.858;25.974;2023-04-09T01:31:13;101588.03;;;12.61;57.39
42169;BME280;27838;43.858;25.974;2023-04-09T01:33:40;101586.31;;;12.66;57.08
42169;BME280;27838;43.858;25.974;2023-04-09T01:36:08;101595.06;;;12.69;57.38
42169;BME280;27838;43.858;25.974;2023-04-09T01:38:36;101588.91;;;12.62;57.14
42169;BME280;27838;43.858;25.974;2023-04-09T01:41:06;101582.78;;;12.57;57.05
42169;BME280;27838;43.858;25.974;2023-04-09T01:43:33;101588.03;;;12.58;57.46
42169;BME280;27838;43.858;25.974;2023-04-09T01:46:01;101592.41;;;12.62;57.18
42169;BME280;27838;43.858;25.974;2023-04-09T01:48:28;101575.81;;;12.57;57.48
42169;BME280;27838;43.858;25.974;2023-04-09T01:50:56;101583.69;;;12.63;57.00
42169;BME280;27838;43.858;25.974;2023-04-09T01:53:23;101552.28;;;12.57;56.99
42169;BME280;27838;43.858;25.974;2023-04-09T01:55:55;101568.84;;;12.61;57.45
42169;BME280;27838;43.858;25.974;2023-04-09T01:58:23;101574.06;;;12.55;57.52
42169;BME280;27838;43.858;25.974;2023-04-09T02:00:51;101572.25;;;12.49;57.62
42169;BME280;27838;43.858;25.974;2023-04-09T02:03:25;101578.34;;;12.45;57.96
42169;BME280;27838;43.858;25.974;2023-04-09T02:05:59;101575.72;;;12.43;57.99
42169;BME280;27838;43.858;25.974;2023-04-09T02:08:29;101577.44;;;12.40;58.34
42169;BME280;27838;43.858;25.974;2023-04-09T02:10:57;101568.66;;;12.30;58.36
42169;BME280;27838;43.858;25.974;2023-04-09T02:13:27;101572.19;;;12.34;58.59
42169;BME280;27838;43.858;25.974;2023-04-09T02:15:58;101573.03;;;12.31;58.62
42169;BME280;27838;43.858;25.974;2023-04-09T02:18:26;101573.03;;;12.31;58.45
42169;BME280;27838;43.858;25.974;2023-04-09T02:20:54;101578.25;;;12.30;58.60
42169;BME280;27838;43.858;25.974;2023-04-09T02:23:22;101575.63;;;12.28;58.49
42169;BME280;27838;43.858;25.974;2023-04-09T02:25:49;101566.00;;;12.22;58.77
42169;BME280;27838;43.858;25.974;2023-04-09T02:28:16;101560.75;;;12.19;58.49
42169;BME280;27838;43.858;25.974;2023-04-09T02:30:43;101571.28;;;12.27;58.49
42169;BME280;27838;43.858;25.974;2023-04-09T02:33:10;101568.69;;;12.28;58.51
42169;BME280;27838;43.858;25.974;2023-04-09T02:35:36;101563.41;;;12.24;58.69
42169;BME280;27838;43.858;25.974;2023-04-09T02:38:03;101553.78;;;12.15;58.78
42169;BME280;27838;43.858;25.974;2023-04-09T02:40:30;101559.88;;;12.19;58.26
42169;BME280;27838;43.858;25.974;2023-04-09T02:42:56;101564.25;;;12.17;58.49
42169;BME280;27838;43.858;25.974;2023-04-09T02:45:23;101558.03;;;11.99;58.59
42169;BME280;27838;43.858;25.974;2023-04-09T02:47:50;101569.38;;;12.03;58.92
42169;BME280;27838;43.858;25.974;2023-04-09T02:50:16;101568.41;;;11.95;59.00
42169;BME280;27838;43.858;25.974;2023-04-09T02:52:45;101567.47;;;11.88;59.19
42169;BME280;27838;43.858;25.974;2023-04-09T02:55:12;101576.22;;;11.92;59.25
42169;BME280;27838;43.858;25.974;2023-04-09T02:57:39;101575.41;;;11.94;59.00
42169;BME280;27838;43.858;25.974;2023-04-09T03:00:06;101577.13;;;11.92;59.36
42169;BME280;27838;43.858;25.974;2023-04-09T03:02:32;101577.91;;;11.89;59.53
42169;BME280;27838;43.858;25.974;2023-04-09T03:04:59;101584.97;;;11.92;59.44
42169;BME280;27838;43.858;25.974;2023-04-09T03:07:25;101585.81;;;11.91;59.31
42169;BME280;27838;43.858;25.974;2023-04-09T03:09:52;101588.34;;;11.88;59.36
42169;BME280;27838;43.858;25.974;2023-04-09T03:12:18;101593.59;;;11.86;59.38
42169;BME280;27838;43.858;25.974;2023-04-09T03:14:45;101591.84;;;11.87;59.41
42169;BME280;27838;43.858;25.974;2023-04-09T03:17:11;101590.09;;;11.87;59.50
42169;BME280;27838;43.858;25.974;2023-04-09T03:19:38;101588.38;;;11.86;59.46
42169;BME280;27838;43.858;25.974;2023-04-09T03:22:04;101590.06;;;11.84;59.34
42169;BME280;27838;43.858;25.974;2023-04-09T03:24:32;101590.09;;;11.86;59.23
42169;BME280;27838;43.858;25.974;2023-04-09T03:26:58;101594.47;;;11.87;58.69
42169;BME280;27838;43.858;25.974;2023-04-09T03:29:25;101596.19;;;11.83;59.49
42169;BME280;27838;43.858;25.974;2023-04-09T03:31:52;101600.50;;;11.81;59.17
42169;BME280;27838;43.858;25.974;2023-04-09T03:34:18;101604.81;;;11.79;59.18
42169;BME280;27838;43.858;25.974;2023-04-09T03:36:45;101606.56;;;11.79;59.12
42169;BME280;27838;43.858;25.974;2023-04-09T03:39:11;101611.75;;;11.74;59.09
42169;BME280;27838;43.858;25.974;2023-04-09T03:41:38;101610.00;;;11.71;58.82
42169;BME280;27838;43.858;25.974;2023-04-09T03:44:04;101611.75;;;11.74;58.55
42169;BME280;27838;43.858;25.974;2023-04-09T03:46:31;101612.59;;;11.70;58.46
42169;BME280;27838;43.858;25.974;2023-04-09T03:48:57;101610.78;;;11.63;58.36
42169;BME280;27838;43.858;25.974;2023-04-09T03:51:24;101610.75;;;11.60;58.66
42169;BME280;27838;43.858;25.974;2023-04-09T03:53:52;101621.16;;;11.57;58.33
42169;BME280;27838;43.858;25.974;2023-04-09T03:56:18;101615.88;;;11.50;58.52
42169;BME280;27838;43.858;25.974;2023-04-09T03:58:45;101622.88;;;11.55;58.34
42169;BME280;27838;43.858;25.974;2023-04-09T04:01:12;101628.09;;;11.55;58.26
42169;BME280;27838;43.858;25.974;2023-04-09T04:03:39;101623.78;;;11.55;58.10
42169;BME280;27838;43.858;25.974;2023-04-09T04:06:05;101623.78;;;11.58;58.28
42169;BME280;27838;43.858;25.974;2023-04-09T04:08:32;101625.59;;;11.65;57.90
42169;BME280;27838;43.858;25.974;2023-04-09T04:11:02;101626.50;;;11.70;57.83
42169;BME280;27838;43.858;25.974;2023-04-09T04:13:29;101625.69;;;11.75;58.02
42169;BME280;27838;43.858;25.974;2023-04-09T04:15:56;101612.63;;;11.73;57.98
42169;BME280;27838;43.858;25.974;2023-04-09T04:18:22;101622.34;;;11.86;57.65
42169;BME280;27838;43.858;25.974;2023-04-09T04:20:49;101615.38;;;11.88;57.51
42169;BME280;27838;43.858;25.974;2023-04-09T04:23:15;101612.84;;;11.95;57.54
42169;BME280;27838;43.858;25.974;2023-04-09T04:25:42;101618.16;;;12.04;57.38
42169;BME280;27838;43.858;25.974;2023-04-09T04:28:09;101623.41;;;12.10;57.80
42169;BME280;27838;43.858;25.974;2023-04-09T04:30:35;101617.34;;;12.11;57.25
42169;BME280;27838;43.858;25.974;2023-04-09T04:33:02;101619.09;;;12.15;57.21
42169;BME280;27838;43.858;25.974;2023-04-09T04:35:28;101624.38;;;12.18;57.13
42169;BME280;27838;43.858;25.974;2023-04-09T04:37:55;101621.78;;;12.21;57.32
42169;BME280;27838;43.858;25.974;2023-04-09T04:40:21;101633.16;;;12.31;57.06
42169;BME280;27838;43.858;25.974;2023-04-09T04:42:48;101635.78;;;12.31;57.16
42169;BME280;27838;43.858;25.974;2023-04-09T04:45:15;101625.28;;;12.28;57.43
42169;BME280;27838;43.858;25.974;2023-04-09T04:47:41;101622.66;;;12.26;57.26
42169;BME280;27838;43.858;25.974;2023-04-09T04:50:08;101632.31;;;12.34;57.26
42169;BME280;27838;43.858;25.974;2023-04-09T04:52:35;101641.06;;;12.40;56.14
42169;BME280;27838;43.858;25.974;2023-04-09T04:55:03;101631.50;;;12.45;55.93
42169;BME280;27838;43.858;25.974;2023-04-09T04:57:30;101625.44;;;12.48;55.73
42169;BME280;27838;43.858;25.974;2023-04-09T04:59:56;101632.41;;;12.49;55.22
42169;BME280;27838;43.858;25.974;2023-04-09T05:02:23;101628.94;;;12.50;55.74
42169;BME280;27838;43.858;25.974;2023-04-09T05:04:49;101630.69;;;12.51;55.70
42169;BME280;27838;43.858;25.974;2023-04-09T05:07:16;101630.69;;;12.54;55.55
42169;BME280;27838;43.858;25.974;2023-04-09T05:09:42;101609.78;;;12.54;55.10
42169;BME280;27838;43.858;25.974;2023-04-09T05:12:09;101624.63;;;12.61;55.25
42169;BME280;27838;43.858;25.974;2023-04-09T05:14:35;101620.28;;;12.60;54.96
42169;BME280;27838;43.858;25.974;2023-04-09T05:17:02;101636.06;;;12.74;54.77
42169;BME280;27838;43.858;25.974;2023-04-09T05:19:28;101623.00;;;12.76;54.30
42169;BME280;27838;43.858;25.974;2023-04-09T05:21:55;101623.91;;;12.85;53.27
42169;BME280;27838;43.858;25.974;2023-04-09T05:24:21;101634.41;;;12.96;53.09
42169;BME280;27838;43.858;25.974;2023-04-09T05:26:48;101625.66;;;12.91;53.78
42169;BME280;27838;43.858;25.974;2023-04-09T05:29:14;101632.69;;;13.01;53.31
42169;BME280;27838;43.858;25.974;2023-04-09T05:31:41;101630.97;;;13.07;53.58
42169;BME280;27838;43.858;25.974;2023-04-09T05:34:08;101634.47;;;13.12;52.90
42169;BME280;27838;43.858;25.974;2023-04-09T05:36:35;101635.38;;;13.15;52.42
42169;BME280;27838;43.858;25.974;2023-04-09T05:39:01;101637.16;;;13.19;52.20
42169;BME280;27838;43.858;25.974;2023-04-09T05:41:28;101644.19;;;13.31;52.28
42169;BME280;27838;43.858;25.974;2023-04-09T05:43:56;101645.97;;;13.43;51.54
42169;BME280;27838;43.858;25.974;2023-04-09T05:46:23;101646.91;;;13.56;51.34
42169;BME280;27838;43.858;25.974;2023-04-09T05:48:49;101650.41;;;13.67;51.01
42169;BME280;27838;43.858;25.974;2023-04-09T05:51:16;101641.69;;;13.74;51.11
42169;BME280;27838;43.858;25.974;2023-04-09T05:53:42;101653.03;;;13.78;50.67
42169;BME280;27838;43.858;25.974;2023-04-09T05:56:14;101651.31;;;13.85;50.21
42169;BME280;27838;43.858;25.974;2023-04-09T05:58:40;101650.44;;;13.92;50.45
42169;BME280;27838;43.858;25.974;2023-04-09T06:01:07;101642.59;;;14.00;50.47
42169;BME280;27838;43.858;25.974;2023-04-09T06:03:34;101647.84;;;14.12;50.30
42169;BME280;27838;43.858;25.974;2023-04-09T06:06:00;101647.81;;;14.15;49.93
42169;BME280;27838;43.858;25.974;2023-04-09T06:08:27;101646.06;;;14.20;49.59
42169;BME280;27838;43.858;25.974;2023-04-09T06:10:53;101644.31;;;14.25;49.96
42169;BME280;27838;43.858;25.974;2023-04-09T06:13:20;101642.59;;;14.33;49.58
42169;BME280;27838;43.858;25.974;2023-04-09T06:15:47;101646.94;;;14.45;48.98
42169;BME280;27838;43.858;25.974;2023-04-09T06:18:13;101644.28;;;14.56;49.00
42169;BME280;27838;43.858;25.974;2023-04-09T06:20:40;101640.81;;;14.62;49.05
42169;BME280;27838;43.858;25.974;2023-04-09T06:23:06;101646.06;;;14.60;48.97
42169;BME280;27838;43.858;25.974;2023-04-09T06:25:34;101645.16;;;14.53;49.64
42169;BME280;27838;43.858;25.974;2023-04-09T06:28:01;101645.16;;;14.55;50.26
42169;BME280;27838;43.858;25.974;2023-04-09T06:30:28;101645.16;;;14.55;48.84
42169;BME280;27838;43.858;25.974;2023-04-09T06:32:56;101646.06;;;14.52;49.14
42169;BME280;27838;43.858;25.974;2023-04-09T06:35:22;101654.78;;;14.62;49.01
42169;BME280;27838;43.858;25.974;2023-04-09T06:37:49;101643.44;;;14.66;48.61
42169;BME280;27838;43.858;25.974;2023-04-09T06:40:15;101637.25;;;14.80;48.55
42169;BME280;27838;43.858;25.974;2023-04-09T06:42:42;101650.34;;;15.01;48.56
42169;BME280;27838;43.858;25.974;2023-04-09T06:45:08;101651.19;;;15.03;48.39
42169;BME280;27838;43.858;25.974;2023-04-09T06:47:35;101647.66;;;15.15;47.19
42169;BME280;27838;43.858;25.974;2023-04-09T06:50:02;101641.50;;;15.19;47.61
42169;BME280;27838;43.858;25.974;2023-04-09T06:52:29;101651.94;;;15.35;46.98
42169;BME280;27838;43.858;25.974;2023-04-09T06:54:55;101637.03;;;15.37;46.75
42169;BME280;27838;43.858;25.974;2023-04-09T06:57:22;101651.81;;;15.53;46.49
42169;BME280;27838;43.858;25.974;2023-04-09T06:59:48;101651.81;;;15.58;45.94
42169;BME280;27838;43.858;25.974;2023-04-09T07:02:15;101651.75;;;15.67;46.02
42169;BME280;27838;43.858;25.974;2023-04-09T07:04:42;101646.47;;;15.72;45.73
42169;BME280;27838;43.858;25.974;2023-04-09T07:07:08;101651.75;;;15.75;45.84
42169;BME280;27838;43.858;25.974;2023-04-09T07:09:35;101648.22;;;15.76;45.92
42169;BME280;27838;43.858;25.974;2023-04-09T07:12:01;101634.19;;;15.80;45.61
42169;BME280;27838;43.858;25.974;2023-04-09T07:14:28;101647.25;;;15.92;45.03
42169;BME280;27838;43.858;25.974;2023-04-09T07:16:54;101646.31;;;15.96;45.11
42169;BME280;27838;43.858;25.974;2023-04-09T07:19:21;101635.78;;;16.02;44.38
42169;BME280;27838;43.858;25.974;2023-04-09T07:21:47;101638.31;;;16.13;44.30
42169;BME280;27838;43.858;25.974;2023-04-09T07:24:15;101643.44;;;16.27;43.70
42169;BME280;27838;43.858;25.974;2023-04-09T07:26:41;101635.50;;;16.30;43.28
42169;BME280;27838;43.858;25.974;2023-04-09T07:29:08;101638.91;;;16.41;42.63
42169;BME280;27838;43.858;25.974;2023-04-09T07:31:34;101640.75;;;16.32;42.28
42169;BME280;27838;43.858;25.974;2023-04-09T07:34:01;101636.19;;;16.49;42.32
42169;BME280;27838;43.858;25.974;2023-04-09T07:36:27;101646.72;;;16.49;41.02
42169;BME280;27838;43.858;25.974;2023-04-09T07:38:55;101644.09;;;16.51;41.62
42169;BME280;27838;43.858;25.974;2023-04-09T07:41:22;101641.25;;;16.71;41.27
42169;BME280;27838;43.858;25.974;2023-04-09T07:43:49;101640.28;;;16.79;41.53
42169;BME280;27838;43.858;25.974;2023-04-09T07:46:19;101640.22;;;16.86;40.65
42169;BME280;27838;43.858;25.974;2023-04-09T07:48:46;101648.84;;;17.00;40.57
42169;BME280;27838;43.858;25.974;2023-04-09T07:51:14;101638.22;;;17.09;39.73
42169;BME280;27838;43.858;25.974;2023-04-09T07:53:40;101643.31;;;17.22;38.69
42169;BME280;27838;43.858;25.974;2023-04-09T07:56:07;101652.13;;;17.19;38.56
42169;BME280;27838;43.858;25.974;2023-04-09T07:58:33;101632.84;;;17.17;37.82
42169;BME280;27838;43.858;25.974;2023-04-09T08:01:00;101638.09;;;17.18;36.82
42169;BME280;27838;43.858;25.974;2023-04-09T08:03:26;101649.28;;;17.36;37.04
42169;BME280;27838;43.858;25.974;2023-04-09T08:05:53;101636.84;;;17.47;36.35
42169;BME280;27838;43.858;25.974;2023-04-09T08:08:19;101642.88;;;17.52;36.72
42169;BME280;27838;43.858;25.974;2023-04-09T08:10:46;101643.63;;;17.64;36.53
42169;BME280;27838;43.858;25.974;2023-04-09T08:13:13;101636.53;;;17.67;36.20
42169;BME280;27838;43.858;25.974;2023-04-09T08:15:39;101652.97;;;17.83;35.19
42169;BME280;27838;43.858;25.974;2023-04-09T08:18:06;101643.31;;;17.82;34.68
42169;BME280;27838;43.858;25.974;2023-04-09T08:20:33;101644.06;;;17.93;34.39
42169;BME280;27838;43.858;25.974;2023-04-09T08:23:00;101648.31;;;18.02;34.47
42169;BME280;27838;43.858;25.974;2023-04-09T08:25:26;101647.31;;;18.11;34.53
42169;BME280;27838;43.858;25.974;2023-04-09T08:27:53;101648.06;;;18.18;33.87
42169;BME280;27838;43.858;25.974;2023-04-09T08:30:19;101640.41;;;18.02;34.42
42169;BME280;27838;43.858;25.974;2023-04-09T08:32:46;101639.22;;;18.20;34.64
42169;BME280;27838;43.858;25.974;2023-04-09T08:35:12;101635.47;;;18.35;34.28
42169;BME280;27838;43.858;25.974;2023-04-09T08:37:40;101633.53;;;18.43;33.97
42169;BME280;27838;43.858;25.974;2023-04-09T08:40:07;101634.19;;;18.56;33.18
42169;BME280;27838;43.858;25.974;2023-04-09T08:42:35;101611.31;;;18.55;33.52
42169;BME280;27838;43.858;25.974;2023-04-09T08:45:07;101627.72;;;18.73;32.52
42169;BME280;27838;43.858;25.974;2023-04-09T08:47:35;101628.44;;;18.81;32.62
42169;BME280;27838;43.858;25.974;2023-04-09T08:50:02;101634.34;;;18.95;33.11
42169;BME280;27838;43.858;25.974;2023-04-09T08:52:31;101628.97;;;19.00;32.73
42169;BME280;27838;43.858;25.974;2023-04-09T08:54:58;101626.03;;;19.14;32.55
42169;BME280;27838;43.858;25.974;2023-04-09T08:57:24;101622.41;;;19.18;32.41
42169;BME280;27838;43.858;25.974;2023-04-09T08:59:52;101623.38;;;19.15;32.24
42169;BME280;27838;43.858;25.974;2023-04-09T09:02:18;101629.47;;;19.17;31.87
42169;BME280;27838;43.858;25.974;2023-04-09T09:04:49;101619.03;;;19.11;32.11
42169;BME280;27838;43.858;25.974;2023-04-09T09:07:17;101618.22;;;19.08;32.36
42169;BME280;27838;43.858;25.974;2023-04-09T09:09:58;101619.88;;;19.13;31.76
42169;BME280;27838;43.858;25.974;2023-04-09T09:12:43;101623.16;;;19.24;31.99
42169;BME280;27838;43.858;25.974;2023-04-09T09:15:27;101606.19;;;19.35;31.46
42169;BME280;27838;43.858;25.974;2023-04-09T09:17:55;101609.16;;;19.58;31.29
42169;BME280;27838;43.858;25.974;2023-04-09T09:20:22;101611.47;;;19.74;30.54
42169;BME280;27838;43.858;25.974;2023-04-09T09:22:54;101604.16;;;19.85;30.08
42169;BME280;27838;43.858;25.974;2023-04-09T09:25:21;101593.28;;;19.97;29.88
42169;BME280;27838;43.858;25.974;2023-04-09T09:27:50;101605.44;;;20.05;29.59
42169;BME280;27838;43.858;25.974;2023-04-09T09:30:26;101616.16;;;19.98;29.64
42169;BME280;27838;43.858;25.974;2023-04-09T09:33:09;101614.28;;;20.04;29.29
42169;BME280;27838;43.858;25.974;2023-04-09T09:35:50;101612.41;;;20.07;28.42
42169;BME280;27838;43.858;25.974;2023-04-09T09:38:19;101607.59;;;20.23;28.82
42169;BME280;27838;43.858;25.974;2023-04-09T09:40:46;101596.63;;;20.37;29.22
42169;BME280;27838;43.858;25.974;2023-04-09T09:43:13;101599.22;;;20.40;27.38
42169;BME280;27838;43.858;25.974;2023-04-09T09:45:41;101596.41;;;20.46;27.79
42169;BME280;27838;43.858;25.974;2023-04-09T09:48:10;101607.94;;;20.44;27.53
42169;BME280;27838;43.858;25.974;2023-04-09T09:50:37;101595.22;;;20.56;27.94
42169;BME280;27838;43.858;25.974;2023-04-09T09:53:07;101603.78;;;20.68;27.74
42169;BME280;27838;43.858;25.974;2023-04-09T09:55:38;101601.63;;;20.81;27.66
42169;BME280;27838;43.858;25.974;2023-04-09T09:58:15;101595.31;;;20.86;27.21
42169;BME280;27838;43.858;25.974;2023-04-09T10:00:45;101595.47;;;20.80;27.32
42169;BME280;27838;43.858;25.974;2023-04-09T10:03:20;101578.38;;;20.92;27.52
42169;BME280;27838;43.858;25.974;2023-04-09T10:05:49;101584.25;;;21.02;27.73
42169;BME280;27838;43.858;25.974;2023-04-09T10:08:18;101585.28;;;20.96;26.92
42169;BME280;27838;43.858;25.974;2023-04-09T10:10:45;101597.69;;;20.96;26.29
42169;BME280;27838;43.858;25.974;2023-04-09T10:13:20;101592.91;;;21.07;26.61
42169;BME280;27838;43.858;25.974;2023-04-09T10:15:49;101576.94;;;21.10;26.90
42169;BME280;27838;43.858;25.974;2023-04-09T10:18:17;101595.16;;;20.91;26.11
42169;BME280;27838;43.858;25.974;2023-04-09T10:20:55;101584.88;;;20.80;27.04
42169;BME280;27838;43.858;25.974;2023-04-09T10:23:38;101582.50;;;20.71;27.08
42169;BME280;27838;43.858;25.974;2023-04-09T10:26:06;101572.03;;;20.66;26.91
42169;BME280;27838;43.858;25.974;2023-04-09T10:28:36;101583.59;;;20.64;27.37
42169;BME280;27838;43.858;25.974;2023-04-09T10:31:05;101581.56;;;20.72;27.25
42169;BME280;27838;43.858;25.974;2023-04-09T10:33:35;101584.88;;;20.80;27.60
42169;BME280;27838;43.858;25.974;2023-04-09T10:36:04;101576.19;;;20.75;27.27
42169;BME280;27838;43.858;25.974;2023-04-09T10:41:20;101572.03;;;20.66;27.85
42169;BME280;27838;43.858;25.974;2023-04-09T10:43:47;101569.25;;;20.71;27.59
42169;BME280;27838;43.858;25.974;2023-04-09T10:46:25;101564.53;;;20.81;27.77
42169;BME280;27838;43.858;25.974;2023-04-09T10:49:15;101569.34;;;20.68;27.58
42169;BME280;27838;43.858;25.974;2023-04-09T10:51:53;101559.06;;;20.55;27.27
42169;BME280;27838;43.858;25.974;2023-04-09T10:57:13;101549.13;;;20.32;27.60
42169;BME280;27838;43.858;25.974;2023-04-09T10:59:48;101551.63;;;20.37;27.49
42169;BME280;27838;43.858;25.974;2023-04-09T11:05:17;101541.09;;;20.67;27.46
42169;BME280;27838;43.858;25.974;2023-04-09T11:08:04;101540.22;;;20.68;26.80
42169;BME280;27838;43.858;25.974;2023-04-09T11:10:32;101539.03;;;20.78;26.65
42169;BME280;27838;43.858;25.974;2023-04-09T11:12:59;101531.59;;;20.89;26.99
42169;BME280;27838;43.858;25.974;2023-04-09T11:15:26;101524.22;;;21.01;27.52
42169;BME280;27838;43.858;25.974;2023-04-09T11:17:53;101512.53;;;21.06;26.74
42169;BME280;27838;43.858;25.974;2023-04-09T11:20:23;101517.84;;;21.06;27.26
42169;BME280;27838;43.858;25.974;2023-04-09T11:22:53;101511.78;;;21.03;27.27
42169;BME280;27838;43.858;25.974;2023-04-09T11:25:21;101515.84;;;20.86;27.19
42169;BME280;27838;43.858;25.974;2023-04-09T11:27:49;101524.47;;;20.91;27.34
42169;BME280;27838;43.858;25.974;2023-04-09T11:30:15;101514.81;;;20.90;27.23
42169;BME280;27838;43.858;25.974;2023-04-09T11:32:42;101524.31;;;20.98;27.18
42169;BME280;27838;43.858;25.974;2023-04-09T11:35:13;101523.09;;;21.08;26.92
42169;BME280;27838;43.858;25.974;2023-04-09T11:37:41;101515.06;;;21.11;26.55
42169;BME280;27838;43.858;25.974;2023-04-09T11:40:20;101520.38;;;21.11;26.78
42169;BME280;27838;43.858;25.974;2023-04-09T11:42:51;101517.56;;;21.16;27.14
42169;BME280;27838;43.858;25.974;2023-04-09T11:45:20;101515.53;;;21.24;26.89
42169;BME280;27838;43.858;25.974;2023-04-09T11:47:47;101510.28;;;21.22;27.02
42169;BME280;27838;43.858;25.974;2023-04-09T11:50:14;101490.28;;;21.12;26.92
42169;BME280;27838;43.858;25.974;2023-04-09T11:52:42;101500.78;;;21.15;27.16
42169;BME280;27838;43.858;25.974;2023-04-09T11:55:09;101494.63;;;21.15;26.86
42169;BME280;27838;43.858;25.974;2023-04-09T11:57:41;101503.13;;;21.24;26.80
42169;BME280;27838;43.858;25.974;2023-04-09T12:00:16;101504.16;;;21.20;26.65
42169;BME280;27838;43.858;25.974;2023-04-09T12:02:46;101501.59;;;21.17;26.86
42169;BME280;27838;43.858;25.974;2023-04-09T12:05:24;101493.66;;;21.17;27.08
42169;BME280;27838;43.858;25.974;2023-04-09T12:07:51;101492.75;;;21.18;26.55
42169;BME280;27838;43.858;25.974;2023-04-09T12:10:26;101488.84;;;21.02;26.60
42169;BME280;27838;43.858;25.974;2023-04-09T12:12:54;101484.59;;;20.96;26.77
42169;BME280;27838;43.858;25.974;2023-04-09T12:15:22;101478.47;;;20.94;26.68
42169;BME280;27838;43.858;25.974;2023-04-09T12:17:54;101482.88;;;20.95;27.53
42169;BME280;27838;43.858;25.974;2023-04-09T12:20:28;101480.53;;;20.84;27.18
42169;BME280;27838;43.858;25.974;2023-04-09T12:22:55;101488.78;;;20.75;27.40
42169;BME280;27838;43.858;25.974;2023-04-09T12:25:22;101462.41;;;20.70;27.21
42169;BME280;27838;43.858;25.974;2023-04-09T12:27:48;101475.34;;;20.81;26.80
42169;BME280;27838;43.858;25.974;2023-04-09T12:30:15;101474.13;;;20.91;26.94
42169;BME280;27838;43.858;25.974;2023-04-09T12:32:42;101470.78;;;20.86;27.30
42169;BME280;27838;43.858;25.974;2023-04-09T12:35:10;101461.38;;;20.76;27.90
42169;BME280;27838;43.858;25.974;2023-04-09T12:37:37;101466.94;;;20.67;27.61
42169;BME280;27838;43.858;25.974;2023-04-09T12:40:03;101473.25;;;20.63;27.80
42169;BME280;27838;43.858;25.974;2023-04-09T12:42:30;101469.75;;;20.61;27.81
42169;BME280;27838;43.858;25.974;2023-04-09T12:44:57;101458.34;;;20.59;27.30
42169;BME280;27838;43.858;25.974;2023-04-09T12:47:23;101460.28;;;20.53;27.04
42169;BME280;27838;43.858;25.974;2023-04-09T12:49:50;101454.06;;;20.53;26.93
42169;BME280;27838;43.858;25.974;2023-04-09T12:52:16;101455.06;;;20.50;26.83
42169;BME280;27838;43.858;25.974;2023-04-09T12:54:43;101456.97;;;20.45;27.31
42169;BME280;27838;43.858;25.974;2023-04-09T12:57:10;101454.31;;;20.45;27.16
42169;BME280;27838;43.858;25.974;2023-04-09T12:59:36;101449.03;;;20.45;27.17
42169;BME280;27838;43.858;25.974;2023-04-09T13:02:03;101441.94;;;20.46;27.42